createdAt,value
2018-11-12T00:02:03.353Z,4.47
2018-11-12T00:04:31.774Z,3.63
2018-11-12T00:07:00.179Z,4.40
2018-11-12T00:09:29.349Z,4.47
2018-11-12T00:11:57.792Z,5.03
2018-11-12T00:14:27.130Z,5.33
2018-11-12T00:16:55.545Z,3.47
2018-11-12T00:19:24.592Z,4.57
2018-11-12T00:21:53.052Z,4.57
2018-11-12T00:24:21.509Z,3.83
2018-11-12T00:26:50.172Z,3.87
2018-11-12T00:29:20.047Z,3.83
2018-11-12T00:31:48.672Z,4.33
2018-11-12T00:34:17.834Z,4.53
2018-11-12T00:36:46.585Z,3.43
2018-11-12T00:39:15.212Z,4.10
2018-11-12T00:41:44.671Z,3.70
2018-11-12T00:44:13.493Z,3.40
2018-11-12T00:46:42.621Z,5.13
2018-11-12T00:49:11.177Z,3.57
2018-11-12T00:51:40.359Z,4.03
2018-11-12T00:54:10.009Z,4.13
2018-11-12T00:56:38.496Z,3.23
2018-11-12T00:59:06.916Z,4.03
2018-11-12T01:01:35.881Z,3.30
2018-11-12T01:04:05.705Z,2.70
2018-11-12T01:06:34.452Z,3.83
2018-11-12T01:09:03.105Z,3.73
2018-11-12T01:11:31.547Z,3.73
2018-11-12T01:13:59.941Z,3.23
2018-11-12T01:16:29.255Z,4.00
2018-11-12T01:18:57.667Z,3.43
2018-11-12T01:21:26.114Z,4.43
2018-11-12T01:23:55.957Z,3.53
2018-11-12T01:26:24.409Z,3.10
2018-11-12T01:28:53.475Z,3.23
2018-11-12T01:31:22.529Z,3.90
2018-11-12T01:33:50.984Z,4.27
2018-11-12T01:36:19.640Z,4.47
2018-11-12T01:38:48.572Z,4.50
2018-11-12T01:41:17.121Z,3.13
2018-11-12T01:43:45.636Z,4.20
2018-11-12T01:46:14.125Z,3.40
2018-11-12T01:48:49.309Z,4.40
2018-11-12T01:51:17.765Z,4.23
2018-11-12T01:53:46.257Z,3.43
2018-11-12T01:56:14.698Z,3.73
2018-11-12T01:58:44.495Z,3.93
2018-11-12T02:01:13.118Z,3.97
2018-11-12T02:03:42.569Z,4.23
2018-11-12T02:06:11.375Z,3.57
2018-11-12T02:08:40.532Z,4.33
2018-11-12T02:11:08.985Z,2.77
2018-11-12T02:13:37.491Z,3.47
2018-11-12T02:16:07.625Z,4.20
2018-11-12T02:18:37.251Z,2.37
2018-11-12T02:21:06.388Z,3.23
2018-11-12T02:23:35.006Z,4.80
2018-11-12T02:26:04.277Z,3.87
2018-11-12T02:28:33.521Z,3.17
2018-11-12T02:31:02.045Z,3.47
2018-11-12T02:33:31.840Z,3.53
2018-11-12T02:36:00.279Z,4.07
2018-11-12T02:38:28.699Z,3.67
2018-11-12T02:40:58.279Z,3.10
2018-11-12T02:43:26.736Z,3.57
2018-11-12T02:45:55.215Z,2.80
2018-11-12T02:48:23.756Z,3.53
2018-11-12T02:50:53.013Z,4.20
2018-11-12T02:53:21.587Z,3.00
2018-11-12T02:55:50.042Z,4.03
2018-11-12T02:58:18.432Z,2.87
2018-11-12T03:00:46.933Z,3.23
2018-11-12T03:03:15.349Z,4.73
2018-11-12T03:05:43.766Z,3.33
2018-11-12T03:08:12.316Z,2.80
2018-11-12T03:10:41.223Z,2.93
2018-11-12T03:13:09.666Z,3.13
2018-11-12T03:15:38.759Z,3.80
2018-11-12T03:18:08.795Z,3.13
2018-11-12T03:20:37.412Z,4.40
2018-11-12T03:23:05.881Z,3.57
2018-11-12T03:25:34.313Z,3.47
2018-11-12T03:28:21.613Z,3.13
2018-11-12T03:30:50.135Z,3.70
2018-11-12T03:33:18.609Z,4.07
2018-11-12T03:35:47.131Z,3.63
2018-11-12T03:38:15.767Z,3.63
2018-11-12T03:40:44.222Z,2.80
2018-11-12T03:43:12.668Z,3.90
2018-11-12T03:45:41.284Z,4.07
2018-11-12T03:48:09.837Z,2.80
2018-11-12T03:50:38.824Z,3.93
2018-11-12T03:53:07.258Z,3.10
2018-11-12T03:55:36.074Z,2.57
2018-11-12T03:58:04.912Z,3.00
2018-11-12T04:00:33.703Z,3.33
2018-11-12T04:03:02.175Z,2.97
2018-11-12T04:05:30.598Z,3.17
2018-11-12T04:07:59.243Z,2.70
2018-11-12T04:10:27.782Z,3.20
2018-11-12T04:12:56.230Z,3.30
2018-11-12T04:15:25.822Z,2.90
2018-11-12T04:17:56.188Z,2.77
2018-11-12T04:20:25.398Z,3.30
2018-11-12T04:22:59.213Z,2.90
2018-11-12T04:25:27.757Z,2.83
2018-11-12T04:27:56.239Z,3.17
2018-11-12T04:30:24.749Z,2.87
2018-11-12T04:32:53.588Z,3.13
2018-11-12T04:35:22.204Z,2.60
2018-11-12T04:37:50.613Z,3.60
2018-11-12T04:40:19.616Z,3.23
2018-11-12T04:42:48.638Z,2.80
2018-11-12T04:45:18.397Z,3.07
2018-11-12T04:47:47.718Z,4.20
2018-11-12T04:50:18.085Z,3.40
2018-11-12T04:52:46.985Z,2.70
2018-11-12T04:55:17.105Z,3.03
2018-11-12T04:57:46.017Z,3.20
2018-11-12T05:00:19.739Z,2.33
2018-11-12T05:02:48.275Z,3.10
2018-11-12T05:05:18.241Z,3.93
2018-11-12T05:07:46.826Z,2.93
2018-11-12T05:10:16.580Z,3.50
2018-11-12T05:12:45.509Z,3.00
2018-11-12T05:15:15.777Z,2.80
2018-11-12T05:17:44.304Z,2.73
2018-11-12T05:20:14.984Z,2.87
2018-11-12T05:22:43.727Z,3.20
2018-11-12T05:25:12.359Z,2.87
2018-11-12T05:27:40.833Z,2.93
2018-11-12T05:30:19.196Z,2.83
2018-11-12T05:32:47.755Z,3.13
2018-11-12T05:35:17.692Z,2.40
2018-11-12T05:37:46.307Z,2.37
2018-11-12T05:40:17.293Z,2.70
2018-11-12T05:42:45.901Z,2.83
2018-11-12T05:45:16.224Z,2.90
2018-11-12T05:47:44.676Z,3.73
2018-11-12T05:50:16.644Z,2.50
2018-11-12T05:52:46.377Z,3.27
2018-11-12T05:55:16.233Z,2.87
2018-11-12T05:57:45.340Z,3.23
2018-11-12T06:00:15.285Z,2.30
2018-11-12T06:02:43.796Z,2.70
2018-11-12T06:05:13.371Z,2.47
2018-11-12T06:07:41.932Z,2.33
2018-11-12T06:10:14.061Z,2.87
2018-11-12T06:12:43.059Z,2.80
2018-11-12T06:15:12.203Z,2.60
2018-11-12T06:17:41.695Z,2.50
2018-11-12T06:20:16.435Z,2.50
2018-11-12T06:22:45.237Z,2.40
2018-11-12T06:25:15.254Z,2.67
2018-11-12T06:27:43.702Z,3.17
2018-11-12T06:30:16.520Z,3.00
2018-11-12T06:32:45.028Z,2.23
2018-11-12T06:35:14.237Z,2.33
2018-11-12T06:37:43.794Z,2.67
2018-11-12T06:40:14.080Z,3.40
2018-11-12T06:42:42.713Z,2.40
2018-11-12T06:45:16.041Z,2.13
2018-11-12T06:47:45.268Z,2.27
2018-11-12T06:50:15.530Z,2.43
2018-11-12T06:52:44.331Z,2.30
2018-11-12T06:55:13.882Z,2.40
2018-11-12T06:57:42.577Z,2.50
2018-11-12T07:00:15.254Z,2.40
2018-11-12T07:02:44.563Z,2.97
2018-11-12T07:05:13.829Z,2.17
2018-11-12T07:07:42.333Z,2.97
2018-11-12T07:10:12.899Z,2.47
2018-11-12T07:12:42.317Z,2.27
2018-11-12T07:15:12.600Z,2.07
2018-11-12T07:17:41.113Z,2.80
2018-11-12T07:20:14.070Z,2.40
2018-11-12T07:22:42.614Z,2.33
2018-11-12T07:25:12.725Z,2.33
2018-11-12T07:27:41.189Z,2.40
2018-11-12T07:30:14.164Z,2.97
2018-11-12T07:32:42.620Z,2.67
2018-11-12T07:35:12.624Z,2.67
2018-11-12T07:37:41.708Z,2.57
2018-11-12T07:40:11.029Z,2.43
2018-11-12T07:42:40.296Z,2.53
2018-11-12T07:45:11.452Z,2.30
2018-11-12T07:47:41.393Z,2.63
2018-11-12T07:50:12.331Z,2.20
2018-11-12T07:52:41.457Z,2.33
2018-11-12T07:55:12.873Z,2.87
2018-11-12T07:57:41.692Z,2.10
2018-11-12T08:00:13.151Z,2.80
2018-11-12T08:02:42.868Z,2.03
2018-11-12T08:05:12.093Z,2.03
2018-11-12T08:07:41.841Z,2.40
2018-11-12T08:10:18.582Z,2.87
2018-11-12T08:12:47.576Z,2.57
2018-11-12T08:15:17.385Z,2.23
2018-11-12T08:17:45.921Z,2.60
2018-11-12T08:20:16.779Z,2.37
2018-11-12T08:22:46.702Z,2.10
2018-11-12T08:25:15.340Z,2.47
2018-11-12T08:27:44.445Z,2.07
2018-11-12T08:30:15.090Z,2.33
2018-11-12T08:32:44.247Z,2.20
2018-11-12T08:35:13.247Z,2.03
2018-11-12T08:37:41.742Z,2.00
2018-11-12T08:40:11.858Z,2.30
2018-11-12T08:42:41.025Z,2.10
2018-11-12T08:45:10.207Z,2.00
2018-11-12T08:47:40.073Z,2.40
2018-11-12T08:50:11.465Z,2.03
2018-11-12T08:52:41.297Z,1.97
2018-11-12T08:55:12.029Z,2.60
2018-11-12T08:57:41.931Z,1.97
2018-11-12T09:00:11.476Z,2.30
2018-11-12T09:02:40.322Z,2.60
2018-11-12T09:05:10.483Z,2.57
2018-11-12T09:07:39.782Z,1.90
2018-11-12T09:10:12.249Z,2.20
2018-11-12T09:12:41.111Z,1.90
2018-11-12T09:15:10.232Z,2.27
2018-11-12T09:17:39.704Z,2.50
2018-11-12T09:20:09.471Z,2.63
2018-11-12T09:22:38.395Z,2.00
2018-11-12T09:25:09.011Z,1.70
2018-11-12T09:27:37.590Z,2.13
2018-11-12T09:30:11.574Z,2.03
2018-11-12T09:32:40.868Z,2.00
2018-11-12T09:35:10.801Z,2.90
2018-11-12T09:37:39.908Z,1.53
2018-11-12T09:40:12.912Z,2.33
2018-11-12T09:42:41.670Z,2.33
2018-11-12T09:45:10.682Z,2.30
2018-11-12T09:47:39.636Z,1.53
2018-11-12T09:50:10.375Z,1.90
2018-11-12T09:52:39.188Z,2.13
2018-11-12T09:55:09.092Z,1.63
2018-11-12T09:57:38.362Z,1.73
2018-11-12T10:00:09.006Z,1.73
2018-11-12T10:02:38.276Z,1.47
2018-11-12T10:05:08.147Z,2.13
2018-11-12T10:07:38.330Z,2.10
2018-11-12T10:10:16.969Z,2.07
2018-11-12T10:12:45.663Z,1.90
2018-11-12T10:15:13.399Z,2.07
2018-11-12T10:17:43.548Z,2.50
2018-11-12T10:20:08.899Z,1.60
2018-11-12T10:22:37.519Z,1.90
2018-11-12T10:25:06.086Z,1.80
2018-11-12T10:27:34.670Z,1.93
2018-11-12T10:30:03.296Z,1.67
2018-11-12T10:32:31.741Z,2.00
2018-11-12T10:35:00.203Z,1.67
2018-11-12T10:37:28.641Z,1.87
2018-11-12T10:39:57.290Z,1.83
2018-11-12T10:42:25.776Z,2.80
2018-11-12T10:44:54.414Z,1.83
2018-11-12T10:47:23.309Z,1.80
2018-11-12T10:49:52.436Z,2.00
2018-11-12T10:52:21.347Z,2.00
2018-11-12T10:54:50.024Z,3.17
2018-11-12T10:57:18.385Z,2.10
2018-11-12T10:59:47.072Z,1.70
2018-11-12T11:02:21.519Z,1.70
2018-11-12T11:04:50.094Z,1.67
2018-11-12T11:07:18.564Z,1.63
2018-11-12T11:09:47.648Z,1.60
2018-11-12T11:12:16.320Z,1.43
2018-11-12T11:14:45.475Z,2.00
2018-11-12T11:17:14.361Z,1.83
2018-11-12T11:19:43.072Z,1.40
2018-11-12T11:22:11.676Z,1.90
2018-11-12T11:24:40.744Z,1.53
2018-11-12T11:27:09.427Z,1.70
2018-11-12T11:29:38.490Z,1.33
2018-11-12T11:32:06.918Z,1.77
2018-11-12T11:34:35.364Z,1.80
2018-11-12T11:37:03.856Z,1.57
2018-11-12T11:39:32.489Z,1.63
2018-11-12T11:42:07.475Z,2.33
2018-11-12T11:44:35.997Z,2.00
2018-11-12T11:47:04.510Z,1.60
2018-11-12T11:49:33.017Z,1.60
2018-11-12T11:52:01.437Z,1.80
2018-11-12T11:54:30.261Z,1.60
2018-11-12T11:56:58.786Z,2.40
2018-11-12T11:59:28.158Z,1.77
2018-11-12T12:01:56.594Z,1.60
2018-11-12T12:04:25.014Z,1.63
2018-11-12T12:06:53.433Z,1.70
2018-11-12T12:09:21.918Z,1.77
2018-11-12T12:11:50.439Z,1.60
2018-11-12T12:14:19.018Z,2.07
2018-11-12T12:16:47.590Z,1.50
2018-11-12T12:19:16.440Z,1.70
2018-11-12T12:21:45.396Z,1.40
2018-11-12T12:24:13.920Z,1.50
2018-11-12T12:26:42.324Z,1.60
2018-11-12T12:29:10.795Z,1.33
2018-11-12T12:31:39.817Z,1.67
2018-11-12T12:34:08.295Z,2.07
2018-11-12T12:36:36.736Z,1.70
2018-11-12T12:39:08.362Z,1.47
2018-11-12T12:41:37.033Z,1.77
2018-11-12T12:44:05.671Z,1.77
2018-11-12T12:46:34.071Z,1.63
2018-11-12T12:49:02.566Z,1.43
2018-11-12T12:51:31.044Z,1.50
2018-11-12T12:53:59.438Z,1.53
2018-11-12T12:56:27.910Z,1.50
2018-11-12T12:58:56.450Z,1.70
2018-11-12T13:01:25.120Z,1.80
2018-11-12T13:03:53.650Z,1.07
2018-11-12T13:06:22.068Z,1.63
2018-11-12T13:08:50.993Z,1.43
2018-11-12T13:11:19.392Z,1.50
2018-11-12T13:13:47.962Z,1.43
2018-11-12T13:16:16.450Z,1.10
2018-11-12T13:18:44.906Z,1.60
2018-11-12T13:21:13.313Z,1.50
2018-11-12T13:23:42.112Z,1.40
2018-11-12T13:26:10.552Z,1.20
2018-11-12T13:28:39.700Z,1.40
2018-11-12T13:31:08.094Z,1.40
2018-11-12T13:33:36.658Z,1.87
2018-11-12T13:36:05.732Z,1.50
2018-11-12T13:38:34.413Z,1.00
2018-11-12T13:41:02.871Z,1.53
2018-11-12T13:43:31.509Z,1.87
2018-11-12T13:46:00.049Z,1.40
2018-11-12T13:48:28.530Z,1.50
2018-11-12T13:50:57.180Z,1.47
2018-11-12T13:53:25.603Z,1.20
2018-11-12T13:55:54.567Z,1.30
2018-11-12T13:58:23.060Z,1.33
2018-11-12T14:00:51.529Z,1.20
2018-11-12T14:03:19.934Z,1.67
2018-11-12T14:05:48.493Z,1.33
2018-11-12T14:08:17.022Z,1.27
2018-11-12T14:10:45.530Z,1.40
2018-11-12T14:13:14.124Z,1.10
2018-11-12T14:15:43.059Z,1.57
2018-11-12T14:18:11.548Z,1.47
2018-11-12T14:20:42.219Z,1.30
2018-11-12T14:23:10.758Z,1.10
2018-11-12T14:25:39.318Z,1.20
2018-11-12T14:28:07.990Z,1.20
2018-11-12T14:30:36.450Z,1.27
2018-11-12T14:33:05.260Z,1.20
2018-11-12T14:35:33.784Z,1.13
2018-11-12T14:38:02.211Z,1.30
2018-11-12T14:40:30.669Z,1.70
2018-11-12T14:42:59.128Z,0.93
2018-11-12T14:45:27.693Z,1.07
2018-11-12T14:47:56.154Z,1.30
2018-11-12T14:50:24.611Z,1.60
2018-11-12T14:52:53.088Z,1.20
2018-11-12T14:55:22.751Z,1.23
2018-11-12T14:57:51.724Z,1.20
2018-11-12T15:00:22.576Z,1.20
2018-11-12T15:02:51.967Z,1.27
2018-11-12T15:05:21.981Z,1.30
2018-11-12T15:07:50.467Z,1.10
2018-11-12T15:10:19.135Z,1.20
2018-11-12T15:12:48.223Z,1.40
2018-11-12T15:15:16.643Z,1.27
2018-11-12T15:17:45.424Z,1.43
2018-11-12T15:20:16.327Z,1.10
2018-11-12T15:22:45.099Z,0.93
2018-11-12T15:25:15.438Z,1.50
2018-11-12T15:27:44.398Z,1.17
2018-11-12T15:30:16.540Z,1.30
2018-11-12T15:32:45.833Z,1.30
2018-11-12T15:35:14.496Z,1.27
2018-11-12T15:37:43.742Z,0.80
2018-11-12T15:40:12.642Z,1.40
2018-11-12T15:42:41.557Z,1.20
2018-11-12T15:45:12.679Z,1.30
2018-11-12T15:47:41.180Z,1.17
2018-11-12T15:50:15.794Z,1.13
2018-11-12T15:52:45.156Z,1.33
2018-11-12T15:55:15.827Z,0.90
2018-11-12T15:57:43.270Z,1.00
2018-11-12T16:00:14.230Z,1.07
2018-11-12T16:02:42.692Z,0.83
2018-11-12T16:05:11.764Z,1.03
2018-11-12T16:07:40.898Z,1.60
2018-11-12T16:10:15.738Z,0.87
2018-11-12T16:12:44.182Z,0.90
2018-11-12T16:15:13.674Z,1.20
2018-11-12T16:17:42.345Z,1.23
2018-11-12T16:20:13.722Z,1.00
2018-11-12T16:22:42.514Z,1.03
2018-11-12T16:25:10.930Z,1.20
2018-11-12T16:27:40.234Z,1.63
2018-11-12T16:30:09.725Z,1.20
2018-11-12T16:32:38.703Z,0.90
2018-11-12T16:35:09.004Z,1.10
2018-11-12T16:37:38.431Z,0.97
2018-11-12T16:40:07.529Z,1.30
2018-11-12T16:42:35.973Z,1.20
2018-11-12T16:45:04.644Z,1.13
2018-11-12T16:47:33.137Z,1.10
2018-11-12T16:50:01.896Z,1.17
2018-11-12T16:52:30.504Z,1.30
2018-11-12T16:54:58.987Z,1.00
2018-11-12T16:57:27.489Z,1.00
2018-11-12T16:59:55.896Z,1.10
2018-11-12T17:02:24.362Z,0.70
2018-11-12T17:04:55.673Z,1.00
2018-11-12T17:07:26.118Z,0.90
2018-11-12T17:09:54.613Z,1.20
2018-11-12T17:12:23.075Z,1.57
2018-11-12T17:14:51.657Z,1.10
2018-11-12T17:17:20.163Z,1.20
2018-11-12T17:19:48.840Z,1.30
2018-11-12T17:22:17.525Z,0.97
2018-11-12T17:24:46.009Z,0.87
2018-11-12T17:27:14.738Z,1.20
2018-11-12T17:29:43.250Z,0.90
2018-11-12T17:32:11.712Z,1.10
2018-11-12T17:34:40.579Z,0.97
2018-11-12T17:37:09.103Z,0.97
2018-11-12T17:39:37.973Z,0.90
2018-11-12T17:42:06.419Z,0.90
2018-11-12T17:44:34.976Z,0.97
2018-11-12T17:47:03.420Z,0.93
2018-11-12T17:49:31.960Z,1.00
2018-11-12T17:52:00.414Z,1.00
2018-11-12T17:54:29.436Z,1.00
2018-11-12T17:56:59.424Z,1.20
2018-11-12T17:59:28.053Z,1.00
2018-11-12T18:01:56.550Z,0.93
2018-11-12T18:04:26.020Z,0.87
2018-11-12T18:06:54.519Z,0.93
2018-11-12T18:09:22.997Z,0.70
2018-11-12T18:11:51.432Z,1.10
2018-11-12T18:14:20.017Z,0.77
2018-11-12T18:16:48.560Z,0.83
2018-11-12T18:19:17.454Z,0.80
2018-11-12T18:21:46.103Z,0.83
2018-11-12T18:24:14.823Z,1.17
2018-11-12T18:26:43.349Z,0.90
2018-11-12T18:29:11.821Z,1.03
2018-11-12T18:31:40.844Z,0.90
2018-11-12T18:34:09.287Z,1.10
2018-11-12T18:36:37.867Z,0.87
2018-11-12T18:39:08.428Z,1.07
2018-11-12T18:41:37.215Z,0.87
2018-11-12T18:44:05.753Z,1.03
2018-11-12T18:46:34.423Z,0.63
2018-11-12T18:49:02.897Z,0.80
2018-11-12T18:51:31.514Z,1.00
2018-11-12T18:54:00.053Z,1.10
2018-11-12T18:56:28.726Z,1.03
2018-11-12T18:58:57.258Z,0.90
2018-11-12T19:01:25.682Z,1.00
2018-11-12T19:03:54.329Z,1.07
2018-11-12T19:06:22.984Z,0.70
2018-11-12T19:08:51.836Z,0.70
2018-11-12T19:11:20.318Z,0.80
2018-11-12T19:13:48.761Z,0.77
2018-11-12T19:16:17.612Z,1.07
2018-11-12T19:18:46.487Z,1.03
2018-11-12T19:21:15.095Z,1.33
2018-11-12T19:23:43.815Z,1.00
2018-11-12T19:26:12.302Z,0.97
2018-11-12T19:28:41.346Z,0.83
2018-11-12T19:31:10.071Z,1.13
2018-11-12T19:33:38.660Z,1.10
2018-11-12T19:36:07.413Z,0.80
2018-11-12T19:38:35.865Z,0.70
2018-11-12T19:41:05.056Z,1.47
2018-11-12T19:43:33.607Z,0.70
2018-11-12T19:46:02.135Z,1.00
2018-11-12T19:48:30.672Z,0.83
2018-11-12T19:50:59.437Z,0.80
2018-11-12T19:53:27.885Z,0.70
2018-11-12T19:55:56.430Z,0.80
2018-11-12T19:58:24.846Z,0.87
2018-11-12T20:00:53.270Z,0.80
2018-11-12T20:03:22.798Z,1.00
2018-11-12T20:05:51.492Z,0.73
2018-11-12T20:08:20.297Z,0.90
2018-11-12T20:10:48.751Z,0.80
2018-11-12T20:13:17.224Z,0.70
2018-11-12T20:15:46.196Z,0.93
2018-11-12T20:18:15.620Z,0.70
2018-11-12T20:20:44.085Z,0.70
2018-11-12T20:23:12.701Z,1.10
2018-11-12T20:25:41.168Z,0.70
2018-11-12T20:28:09.679Z,0.80
2018-11-12T20:30:39.892Z,0.70
2018-11-12T20:33:08.700Z,0.83
2018-11-12T20:35:37.229Z,0.80
2018-11-12T20:38:05.760Z,0.60
2018-11-12T20:40:34.278Z,0.80
2018-11-12T20:43:02.938Z,0.90
2018-11-12T20:45:31.730Z,1.20
2018-11-12T20:48:00.631Z,0.73
2018-11-12T20:50:29.130Z,0.80
2018-11-12T20:52:57.754Z,1.00
2018-11-12T20:55:27.503Z,0.60
2018-11-12T20:57:56.142Z,0.67
2018-11-12T21:00:26.024Z,0.80
2018-11-12T21:02:55.000Z,0.90
2018-11-12T21:05:26.754Z,0.60
2018-11-12T21:07:55.236Z,0.80
2018-11-12T21:10:23.751Z,0.90
2018-11-12T21:12:52.671Z,1.10
2018-11-12T21:15:22.138Z,1.00
2018-11-12T21:17:50.814Z,0.77
2018-11-12T21:20:20.679Z,0.73
2018-11-12T21:22:49.253Z,0.70
2018-11-12T21:25:19.196Z,0.50
2018-11-12T21:27:47.808Z,1.00
2018-11-12T21:30:24.449Z,0.70
2018-11-12T21:32:53.131Z,0.80
2018-11-12T21:35:22.887Z,0.70
2018-11-12T21:37:52.546Z,1.47
2018-11-12T21:40:24.688Z,0.73
2018-11-12T21:42:53.714Z,0.67
2018-11-12T21:45:26.406Z,0.63
2018-11-12T21:47:55.798Z,0.80
2018-11-12T21:50:26.325Z,0.77
2018-11-12T21:52:55.962Z,0.80
2018-11-12T21:55:25.076Z,0.63
2018-11-12T21:57:53.612Z,0.80
2018-11-12T22:00:27.875Z,2.13
2018-11-12T22:03:04.401Z,1.10
2018-11-12T22:05:33.685Z,0.73
2018-11-12T22:08:03.752Z,0.97
2018-11-12T22:10:33.529Z,0.80
2018-11-12T22:13:03.437Z,1.27
2018-11-12T22:15:32.156Z,1.03
2018-11-12T22:18:00.776Z,2.50
2018-11-12T22:20:29.588Z,1.93
2018-11-12T22:23:00.682Z,2.07
2018-11-12T22:25:30.330Z,1.77
2018-11-12T22:28:01.294Z,0.80
2018-11-12T22:30:31.837Z,1.00
2018-11-12T22:33:01.455Z,2.23
2018-11-12T22:35:30.068Z,1.60
2018-11-12T22:37:58.830Z,0.90
2018-11-12T22:40:27.517Z,1.10
2018-11-12T22:42:56.053Z,3.37
2018-11-12T22:45:25.427Z,0.73
2018-11-12T22:47:54.202Z,1.17
2018-11-12T22:50:22.891Z,0.77
2018-11-12T22:52:51.446Z,0.77
2018-11-12T22:55:20.719Z,1.93
2018-11-12T22:57:50.083Z,1.73
2018-11-12T23:00:25.283Z,1.13
2018-11-12T23:02:54.058Z,0.60
2018-11-12T23:05:23.487Z,1.57
2018-11-12T23:07:52.638Z,1.73
2018-11-12T23:10:21.653Z,1.97
2018-11-12T23:12:50.903Z,0.97
2018-11-12T23:15:21.286Z,1.13
2018-11-12T23:17:49.898Z,0.83
2018-11-12T23:20:19.787Z,1.13
2018-11-12T23:22:48.798Z,0.70
2018-11-12T23:25:17.250Z,1.20
2018-11-12T23:27:47.276Z,0.80
2018-11-12T23:30:17.836Z,0.90
2018-11-12T23:32:46.415Z,0.37
2018-11-12T23:35:16.431Z,0.90
2018-11-12T23:37:46.689Z,0.90
2018-11-12T23:40:15.497Z,0.70
2018-11-12T23:42:46.621Z,0.83
2018-11-12T23:45:15.155Z,0.93
2018-11-12T23:47:44.327Z,0.80
2018-11-12T23:50:15.224Z,0.97
2018-11-12T23:52:44.505Z,1.20
2018-11-12T23:55:13.880Z,1.23
2018-11-12T23:57:43.596Z,0.83
